sensor_id;sensor_type;location;lat;lon;timestamp;P1;durP1;ratioP1;P2;durP2;ratioP2
55170;SDS011;41060;47.510;8.680;2023-02-24T00:00:59;7.05;;;2.95;;
55170;SDS011;41060;47.510;8.680;2023-02-24T00:03:34;5.55;;;3.42;;
55170;SDS011;41060;47.510;8.680;2023-02-24T00:06:03;10.00;;;4.78;;
55170;SDS011;41060;47.510;8.680;2023-02-24T00:08:36;8.52;;;3.67;;
55170;SDS011;41060;47.510;8.680;2023-02-24T00:11:08;4.30;;;2.72;;
55170;SDS011;41060;47.510;8.680;2023-02-24T00:13:37;7.05;;;3.60;;
55170;SDS011;41060;47.510;8.680;2023-02-24T00:16:05;6.45;;;3.78;;
55170;SDS011;41060;47.510;8.680;2023-02-24T00:18:32;11.50;;;4.40;;
55170;SDS011;41060;47.510;8.680;2023-02-24T00:21:06;7.18;;;3.72;;
55170;SDS011;41060;47.510;8.680;2023-02-24T00:23:35;6.63;;;3.55;;
55170;SDS011;41060;47.510;8.680;2023-02-24T00:26:04;6.97;;;2.97;;
55170;SDS011;41060;47.510;8.680;2023-02-24T00:28:31;8.90;;;3.67;;
55170;SDS011;41060;47.510;8.680;2023-02-24T00:31:01;5.43;;;3.47;;
55170;SDS011;41060;47.510;8.680;2023-02-24T00:33:31;7.13;;;3.60;;
55170;SDS011;41060;47.510;8.680;2023-02-24T00:36:09;7.00;;;2.97;;
55170;SDS011;41060;47.510;8.680;2023-02-24T00:38:39;6.78;;;3.90;;
55170;SDS011;41060;47.510;8.680;2023-02-24T00:41:09;12.55;;;3.00;;
55170;SDS011;41060;47.510;8.680;2023-02-24T00:43:39;4.60;;;2.97;;
55170;SDS011;41060;47.510;8.680;2023-02-24T00:46:11;6.97;;;3.08;;
55170;SDS011;41060;47.510;8.680;2023-02-24T00:48:39;6.85;;;4.63;;
55170;SDS011;41060;47.510;8.680;2023-02-24T00:51:09;9.32;;;4.10;;
55170;SDS011;41060;47.510;8.680;2023-02-24T00:53:36;5.38;;;3.75;;
55170;SDS011;41060;47.510;8.680;2023-02-24T00:56:04;11.18;;;4.10;;
55170;SDS011;41060;47.510;8.680;2023-02-24T01:01:00;8.00;;;3.08;;
55170;SDS011;41060;47.510;8.680;2023-02-24T01:03:29;6.05;;;3.65;;
55170;SDS011;41060;47.510;8.680;2023-02-24T01:05:59;6.40;;;2.88;;
55170;SDS011;41060;47.510;8.680;2023-02-24T01:08:28;5.82;;;2.88;;
55170;SDS011;41060;47.510;8.680;2023-02-24T01:10:56;6.05;;;3.40;;
55170;SDS011;41060;47.510;8.680;2023-02-24T01:13:37;7.15;;;3.53;;
55170;SDS011;41060;47.510;8.680;2023-02-24T01:16:04;8.70;;;3.97;;
55170;SDS011;41060;47.510;8.680;2023-02-24T01:18:31;6.88;;;3.33;;
55170;SDS011;41060;47.510;8.680;2023-02-24T01:21:00;4.63;;;2.70;;
55170;SDS011;41060;47.510;8.680;2023-02-24T01:23:28;7.00;;;3.35;;
55170;SDS011;41060;47.510;8.680;2023-02-24T01:25:55;5.22;;;2.90;;
55170;SDS011;41060;47.510;8.680;2023-02-24T01:28:24;4.00;;;2.92;;
55170;SDS011;41060;47.510;8.680;2023-02-24T01:30:51;4.88;;;3.58;;
55170;SDS011;41060;47.510;8.680;2023-02-24T01:33:19;6.35;;;2.83;;
55170;SDS011;41060;47.510;8.680;2023-02-24T01:35:45;4.35;;;3.15;;
55170;SDS011;41060;47.510;8.680;2023-02-24T01:38:15;9.20;;;4.35;;
55170;SDS011;41060;47.510;8.680;2023-02-24T01:40:55;4.07;;;2.97;;
55170;SDS011;41060;47.510;8.680;2023-02-24T01:43:23;5.72;;;3.40;;
55170;SDS011;41060;47.510;8.680;2023-02-24T01:45:49;4.90;;;3.33;;
55170;SDS011;41060;47.510;8.680;2023-02-24T01:48:19;5.65;;;3.58;;
55170;SDS011;41060;47.510;8.680;2023-02-24T01:50:46;13.27;;;3.83;;
55170;SDS011;41060;47.510;8.680;2023-02-24T01:53:15;6.72;;;2.58;;
55170;SDS011;41060;47.510;8.680;2023-02-24T01:55:43;7.85;;;4.05;;
55170;SDS011;41060;47.510;8.680;2023-02-24T01:58:18;6.05;;;3.42;;
55170;SDS011;41060;47.510;8.680;2023-02-24T02:00:49;5.70;;;3.10;;
55170;SDS011;41060;47.510;8.680;2023-02-24T02:03:17;8.80;;;3.80;;
55170;SDS011;41060;47.510;8.680;2023-02-24T02:05:49;14.68;;;4.88;;
55170;SDS011;41060;47.510;8.680;2023-02-24T02:08:19;9.07;;;4.00;;
55170;SDS011;41060;47.510;8.680;2023-02-24T02:10:51;7.60;;;4.55;;
55170;SDS011;41060;47.510;8.680;2023-02-24T02:13:25;11.00;;;3.95;;
55170;SDS011;41060;47.510;8.680;2023-02-24T02:15:55;6.47;;;3.03;;
55170;SDS011;41060;47.510;8.680;2023-02-24T02:18:35;9.75;;;3.88;;
55170;SDS011;41060;47.510;8.680;2023-02-24T02:24:18;6.50;;;3.80;;
55170;SDS011;41060;47.510;8.680;2023-02-24T02:27:05;6.00;;;3.08;;
55170;SDS011;41060;47.510;8.680;2023-02-24T02:29:49;7.80;;;3.50;;
55170;SDS011;41060;47.510;8.680;2023-02-24T02:32:45;7.72;;;3.60;;
55170;SDS011;41060;47.510;8.680;2023-02-24T02:35:19;5.93;;;3.63;;
55170;SDS011;41060;47.510;8.680;2023-02-24T02:37:50;7.85;;;4.32;;
55170;SDS011;41060;47.510;8.680;2023-02-24T02:40:23;8.55;;;3.70;;
55170;SDS011;41060;47.510;8.680;2023-02-24T02:42:54;7.78;;;3.95;;
55170;SDS011;41060;47.510;8.680;2023-02-24T02:45:26;8.05;;;4.00;;
55170;SDS011;41060;47.510;8.680;2023-02-24T02:48:02;16.83;;;5.22;;
55170;SDS011;41060;47.510;8.680;2023-02-24T02:50:35;8.90;;;3.92;;
55170;SDS011;41060;47.510;8.680;2023-02-24T02:55:38;8.35;;;4.45;;
55170;SDS011;41060;47.510;8.680;2023-02-24T02:58:11;6.65;;;3.70;;
55170;SDS011;41060;47.510;8.680;2023-02-24T03:00:41;7.10;;;3.22;;
55170;SDS011;41060;47.510;8.680;2023-02-24T03:03:15;5.68;;;3.13;;
55170;SDS011;41060;47.510;8.680;2023-02-24T03:05:47;6.95;;;4.13;;
55170;SDS011;41060;47.510;8.680;2023-02-24T03:08:19;7.25;;;3.72;;
55170;SDS011;41060;47.510;8.680;2023-02-24T03:13:19;10.70;;;4.53;;
55170;SDS011;41060;47.510;8.680;2023-02-24T03:15:49;10.20;;;4.18;;
55170;SDS011;41060;47.510;8.680;2023-02-24T03:18:19;12.18;;;4.60;;
55170;SDS011;41060;47.510;8.680;2023-02-24T03:20:56;7.60;;;3.50;;
55170;SDS011;41060;47.510;8.680;2023-02-24T03:23:31;6.53;;;3.28;;
55170;SDS011;41060;47.510;8.680;2023-02-24T03:26:02;8.35;;;3.63;;
55170;SDS011;41060;47.510;8.680;2023-02-24T03:28:45;5.78;;;3.28;;
55170;SDS011;41060;47.510;8.680;2023-02-24T03:31:18;10.02;;;4.05;;
55170;SDS011;41060;47.510;8.680;2023-02-24T03:33:50;8.32;;;3.40;;
55170;SDS011;41060;47.510;8.680;2023-02-24T03:36:25;12.52;;;3.15;;
55170;SDS011;41060;47.510;8.680;2023-02-24T03:38:53;10.65;;;4.32;;
55170;SDS011;41060;47.510;8.680;2023-02-24T03:41:22;7.55;;;3.78;;
55170;SDS011;41060;47.510;8.680;2023-02-24T03:43:55;6.57;;;3.20;;
55170;SDS011;41060;47.510;8.680;2023-02-24T03:46:23;6.38;;;3.05;;
55170;SDS011;41060;47.510;8.680;2023-02-24T03:48:51;9.85;;;5.05;;
55170;SDS011;41060;47.510;8.680;2023-02-24T03:51:26;8.48;;;3.72;;
55170;SDS011;41060;47.510;8.680;2023-02-24T03:54:00;6.82;;;3.78;;
55170;SDS011;41060;47.510;8.680;2023-02-24T03:56:38;7.45;;;4.22;;
55170;SDS011;41060;47.510;8.680;2023-02-24T03:59:13;10.98;;;4.50;;
55170;SDS011;41060;47.510;8.680;2023-02-24T04:01:53;4.72;;;3.08;;
55170;SDS011;41060;47.510;8.680;2023-02-24T04:04:26;6.05;;;3.83;;
55170;SDS011;41060;47.510;8.680;2023-02-24T04:07:01;5.68;;;3.58;;
55170;SDS011;41060;47.510;8.680;2023-02-24T04:09:36;7.13;;;3.95;;
55170;SDS011;41060;47.510;8.680;2023-02-24T04:12:12;6.60;;;3.20;;
55170;SDS011;41060;47.510;8.680;2023-02-24T04:14:46;4.60;;;3.95;;
55170;SDS011;41060;47.510;8.680;2023-02-24T04:17:18;4.43;;;2.42;;
55170;SDS011;41060;47.510;8.680;2023-02-24T04:19:50;5.43;;;2.63;;
55170;SDS011;41060;47.510;8.680;2023-02-24T04:22:23;24.08;;;7.90;;
55170;SDS011;41060;47.510;8.680;2023-02-24T04:24:55;8.00;;;4.78;;
55170;SDS011;41060;47.510;8.680;2023-02-24T04:27:26;8.07;;;4.68;;
55170;SDS011;41060;47.510;8.680;2023-02-24T04:29:54;11.05;;;5.30;;
55170;SDS011;41060;47.510;8.680;2023-02-24T04:32:25;8.18;;;4.10;;
55170;SDS011;41060;47.510;8.680;2023-02-24T04:35:00;6.93;;;3.65;;
55170;SDS011;41060;47.510;8.680;2023-02-24T04:37:28;5.97;;;4.32;;
55170;SDS011;41060;47.510;8.680;2023-02-24T04:39:58;8.30;;;3.65;;
55170;SDS011;41060;47.510;8.680;2023-02-24T04:42:25;5.90;;;3.30;;
55170;SDS011;41060;47.510;8.680;2023-02-24T04:44:52;10.88;;;5.15;;
55170;SDS011;41060;47.510;8.680;2023-02-24T04:47:23;7.70;;;3.60;;
55170;SDS011;41060;47.510;8.680;2023-02-24T04:49:52;8.48;;;4.25;;
55170;SDS011;41060;47.510;8.680;2023-02-24T04:52:19;7.57;;;3.50;;
55170;SDS011;41060;47.510;8.680;2023-02-24T04:54:48;7.25;;;3.70;;
55170;SDS011;41060;47.510;8.680;2023-02-24T04:57:14;8.25;;;4.70;;
55170;SDS011;41060;47.510;8.680;2023-02-24T04:59:41;6.72;;;4.13;;
55170;SDS011;41060;47.510;8.680;2023-02-24T05:02:08;11.90;;;3.90;;
55170;SDS011;41060;47.510;8.680;2023-02-24T05:04:36;11.13;;;3.50;;
55170;SDS011;41060;47.510;8.680;2023-02-24T05:07:03;11.75;;;4.20;;
55170;SDS011;41060;47.510;8.680;2023-02-24T05:09:30;9.27;;;4.53;;
55170;SDS011;41060;47.510;8.680;2023-02-24T05:11:58;5.63;;;4.40;;
55170;SDS011;41060;47.510;8.680;2023-02-24T05:14:25;13.55;;;3.88;;
55170;SDS011;41060;47.510;8.680;2023-02-24T05:16:55;6.82;;;4.43;;
55170;SDS011;41060;47.510;8.680;2023-02-24T05:19:24;8.35;;;3.92;;
55170;SDS011;41060;47.510;8.680;2023-02-24T05:22:10;6.32;;;3.85;;
55170;SDS011;41060;47.510;8.680;2023-02-24T05:24:38;6.60;;;3.50;;
55170;SDS011;41060;47.510;8.680;2023-02-24T05:27:07;5.53;;;3.42;;
55170;SDS011;41060;47.510;8.680;2023-02-24T05:29:35;5.20;;;3.47;;
55170;SDS011;41060;47.510;8.680;2023-02-24T05:32:03;5.28;;;3.45;;
55170;SDS011;41060;47.510;8.680;2023-02-24T05:34:30;9.13;;;4.35;;
55170;SDS011;41060;47.510;8.680;2023-02-24T05:36:59;7.93;;;3.45;;
55170;SDS011;41060;47.510;8.680;2023-02-24T05:39:28;10.07;;;3.95;;
55170;SDS011;41060;47.510;8.680;2023-02-24T05:41:55;5.53;;;3.25;;
55170;SDS011;41060;47.510;8.680;2023-02-24T05:44:24;10.23;;;3.88;;
55170;SDS011;41060;47.510;8.680;2023-02-24T05:46:54;8.35;;;4.07;;
55170;SDS011;41060;47.510;8.680;2023-02-24T05:49:24;8.65;;;4.35;;
55170;SDS011;41060;47.510;8.680;2023-02-24T05:51:54;7.78;;;4.05;;
55170;SDS011;41060;47.510;8.680;2023-02-24T05:54:26;10.63;;;4.05;;
55170;SDS011;41060;47.510;8.680;2023-02-24T05:56:54;4.65;;;2.72;;
55170;SDS011;41060;47.510;8.680;2023-02-24T05:59:22;8.32;;;3.70;;
55170;SDS011;41060;47.510;8.680;2023-02-24T06:01:50;8.07;;;3.83;;
55170;SDS011;41060;47.510;8.680;2023-02-24T06:04:18;8.50;;;4.90;;
55170;SDS011;41060;47.510;8.680;2023-02-24T06:07:04;9.38;;;4.35;;
55170;SDS011;41060;47.510;8.680;2023-02-24T06:09:32;10.38;;;5.13;;
55170;SDS011;41060;47.510;8.680;2023-02-24T06:12:04;8.68;;;4.97;;
55170;SDS011;41060;47.510;8.680;2023-02-24T06:14:33;5.78;;;2.30;;
55170;SDS011;41060;47.510;8.680;2023-02-24T06:16:59;7.93;;;4.00;;
55170;SDS011;41060;47.510;8.680;2023-02-24T06:19:28;6.15;;;4.35;;
55170;SDS011;41060;47.510;8.680;2023-02-24T06:21:57;5.65;;;3.50;;
55170;SDS011;41060;47.510;8.680;2023-02-24T06:24:25;5.97;;;5.03;;
55170;SDS011;41060;47.510;8.680;2023-02-24T06:26:53;7.50;;;4.28;;
55170;SDS011;41060;47.510;8.680;2023-02-24T06:29:27;6.60;;;4.93;;
55170;SDS011;41060;47.510;8.680;2023-02-24T06:31:56;8.15;;;4.50;;
55170;SDS011;41060;47.510;8.680;2023-02-24T06:34:23;20.00;;;6.53;;
55170;SDS011;41060;47.510;8.680;2023-02-24T06:36:50;10.18;;;4.63;;
55170;SDS011;41060;47.510;8.680;2023-02-24T06:39:19;11.10;;;4.85;;
55170;SDS011;41060;47.510;8.680;2023-02-24T06:41:48;12.65;;;5.60;;
55170;SDS011;41060;47.510;8.680;2023-02-24T06:44:17;9.13;;;4.40;;
55170;SDS011;41060;47.510;8.680;2023-02-24T06:46:44;18.63;;;4.57;;
55170;SDS011;41060;47.510;8.680;2023-02-24T06:49:12;12.90;;;5.13;;
55170;SDS011;41060;47.510;8.680;2023-02-24T06:51:40;11.40;;;4.05;;
55170;SDS011;41060;47.510;8.680;2023-02-24T06:54:07;9.20;;;4.97;;
55170;SDS011;41060;47.510;8.680;2023-02-24T06:56:34;7.45;;;4.57;;
55170;SDS011;41060;47.510;8.680;2023-02-24T06:59:03;8.25;;;3.97;;
55170;SDS011;41060;47.510;8.680;2023-02-24T07:01:31;7.78;;;4.10;;
55170;SDS011;41060;47.510;8.680;2023-02-24T07:03:59;8.60;;;4.43;;
55170;SDS011;41060;47.510;8.680;2023-02-24T07:06:44;9.95;;;4.90;;
55170;SDS011;41060;47.510;8.680;2023-02-24T07:09:16;9.95;;;5.45;;
55170;SDS011;41060;47.510;8.680;2023-02-24T07:11:45;10.88;;;5.00;;
55170;SDS011;41060;47.510;8.680;2023-02-24T07:14:16;9.52;;;4.72;;
55170;SDS011;41060;47.510;8.680;2023-02-24T07:16:45;8.15;;;4.63;;
55170;SDS011;41060;47.510;8.680;2023-02-24T07:19:16;8.68;;;3.95;;
55170;SDS011;41060;47.510;8.680;2023-02-24T07:21:46;11.90;;;5.30;;
55170;SDS011;41060;47.510;8.680;2023-02-24T07:24:14;15.77;;;4.43;;
55170;SDS011;41060;47.510;8.680;2023-02-24T07:26:54;18.90;;;5.47;;
55170;SDS011;41060;47.510;8.680;2023-02-24T07:29:22;13.82;;;6.20;;
55170;SDS011;41060;47.510;8.680;2023-02-24T07:31:49;8.57;;;6.35;;
55170;SDS011;41060;47.510;8.680;2023-02-24T07:34:20;9.75;;;4.18;;
55170;SDS011;41060;47.510;8.680;2023-02-24T07:36:51;8.48;;;3.92;;
55170;SDS011;41060;47.510;8.680;2023-02-24T07:39:19;11.80;;;5.13;;
55170;SDS011;41060;47.510;8.680;2023-02-24T07:41:48;8.15;;;4.90;;
55170;SDS011;41060;47.510;8.680;2023-02-24T07:44:16;16.33;;;6.10;;
55170;SDS011;41060;47.510;8.680;2023-02-24T07:46:44;12.05;;;5.72;;
55170;SDS011;41060;47.510;8.680;2023-02-24T07:49:13;11.20;;;4.82;;
55170;SDS011;41060;47.510;8.680;2023-02-24T07:51:43;6.63;;;4.55;;
55170;SDS011;41060;47.510;8.680;2023-02-24T07:54:18;9.05;;;4.68;;
55170;SDS011;41060;47.510;8.680;2023-02-24T07:56:46;11.27;;;5.32;;
55170;SDS011;41060;47.510;8.680;2023-02-24T07:59:20;7.25;;;4.47;;
55170;SDS011;41060;47.510;8.680;2023-02-24T08:01:48;7.53;;;5.78;;
55170;SDS011;41060;47.510;8.680;2023-02-24T08:04:16;10.80;;;4.70;;
55170;SDS011;41060;47.510;8.680;2023-02-24T08:06:44;10.77;;;6.60;;
55170;SDS011;41060;47.510;8.680;2023-02-24T08:09:15;8.63;;;4.53;;
55170;SDS011;41060;47.510;8.680;2023-02-24T08:11:47;8.05;;;4.10;;
55170;SDS011;41060;47.510;8.680;2023-02-24T08:14:17;12.30;;;5.15;;
55170;SDS011;41060;47.510;8.680;2023-02-24T08:16:46;14.68;;;5.15;;
55170;SDS011;41060;47.510;8.680;2023-02-24T08:19:14;9.05;;;4.97;;
55170;SDS011;41060;47.510;8.680;2023-02-24T08:21:46;10.20;;;6.00;;
55170;SDS011;41060;47.510;8.680;2023-02-24T08:24:15;14.75;;;5.63;;
55170;SDS011;41060;47.510;8.680;2023-02-24T08:26:43;8.68;;;5.10;;
55170;SDS011;41060;47.510;8.680;2023-02-24T08:29:22;14.25;;;6.38;;
55170;SDS011;41060;47.510;8.680;2023-02-24T08:31:49;11.27;;;5.53;;
55170;SDS011;41060;47.510;8.680;2023-02-24T08:34:16;6.13;;;4.80;;
55170;SDS011;41060;47.510;8.680;2023-02-24T08:36:43;13.20;;;6.63;;
55170;SDS011;41060;47.510;8.680;2023-02-24T08:39:12;12.23;;;6.07;;
55170;SDS011;41060;47.510;8.680;2023-02-24T08:41:40;13.48;;;7.05;;
55170;SDS011;41060;47.510;8.680;2023-02-24T08:44:17;10.93;;;5.03;;
55170;SDS011;41060;47.510;8.680;2023-02-24T08:46:44;14.88;;;5.05;;
55170;SDS011;41060;47.510;8.680;2023-02-24T08:49:13;8.35;;;5.32;;
55170;SDS011;41060;47.510;8.680;2023-02-24T08:51:45;14.45;;;5.80;;
55170;SDS011;41060;47.510;8.680;2023-02-24T08:54:18;9.82;;;5.97;;
55170;SDS011;41060;47.510;8.680;2023-02-24T08:56:52;12.05;;;6.35;;
55170;SDS011;41060;47.510;8.680;2023-02-24T08:59:23;5.57;;;3.78;;
55170;SDS011;41060;47.510;8.680;2023-02-24T09:02:03;9.65;;;5.15;;
55170;SDS011;41060;47.510;8.680;2023-02-24T09:04:48;10.23;;;6.50;;
55170;SDS011;41060;47.510;8.680;2023-02-24T09:07:17;8.60;;;5.85;;
55170;SDS011;41060;47.510;8.680;2023-02-24T09:09:46;11.10;;;5.43;;
55170;SDS011;41060;47.510;8.680;2023-02-24T09:12:13;10.27;;;5.78;;
55170;SDS011;41060;47.510;8.680;2023-02-24T09:14:51;8.10;;;5.45;;
55170;SDS011;41060;47.510;8.680;2023-02-24T09:17:23;8.83;;;5.20;;
55170;SDS011;41060;47.510;8.680;2023-02-24T09:20:06;9.30;;;5.43;;
55170;SDS011;41060;47.510;8.680;2023-02-24T09:22:51;11.60;;;4.43;;
55170;SDS011;41060;47.510;8.680;2023-02-24T09:25:25;11.88;;;6.35;;
55170;SDS011;41060;47.510;8.680;2023-02-24T09:28:05;11.48;;;6.32;;
55170;SDS011;41060;47.510;8.680;2023-02-24T09:30:35;13.65;;;6.60;;
55170;SDS011;41060;47.510;8.680;2023-02-24T09:33:15;10.85;;;6.32;;
55170;SDS011;41060;47.510;8.680;2023-02-24T09:35:46;11.15;;;5.30;;
55170;SDS011;41060;47.510;8.680;2023-02-24T09:38:15;13.15;;;6.85;;
55170;SDS011;41060;47.510;8.680;2023-02-24T09:40:45;19.90;;;6.45;;
55170;SDS011;41060;47.510;8.680;2023-02-24T09:43:18;13.63;;;6.03;;
55170;SDS011;41060;47.510;8.680;2023-02-24T09:45:55;15.00;;;6.53;;
55170;SDS011;41060;47.510;8.680;2023-02-24T09:48:31;15.43;;;6.82;;
55170;SDS011;41060;47.510;8.680;2023-02-24T09:51:09;10.57;;;6.63;;
55170;SDS011;41060;47.510;8.680;2023-02-24T09:53:45;10.75;;;6.40;;
55170;SDS011;41060;47.510;8.680;2023-02-24T09:56:19;13.52;;;6.88;;
55170;SDS011;41060;47.510;8.680;2023-02-24T09:58:54;12.07;;;6.03;;
55170;SDS011;41060;47.510;8.680;2023-02-24T10:01:49;13.63;;;7.78;;
55170;SDS011;41060;47.510;8.680;2023-02-24T10:04:32;17.58;;;6.78;;
55170;SDS011;41060;47.510;8.680;2023-02-24T10:07:14;11.05;;;5.90;;
55170;SDS011;41060;47.510;8.680;2023-02-24T10:09:42;13.82;;;5.93;;
55170;SDS011;41060;47.510;8.680;2023-02-24T10:12:18;14.43;;;6.90;;
55170;SDS011;41060;47.510;8.680;2023-02-24T10:14:49;15.68;;;6.22;;
55170;SDS011;41060;47.510;8.680;2023-02-24T10:17:45;12.32;;;6.68;;
55170;SDS011;41060;47.510;8.680;2023-02-24T10:20:17;14.18;;;6.70;;
55170;SDS011;41060;47.510;8.680;2023-02-24T10:22:57;11.95;;;6.93;;
55170;SDS011;41060;47.510;8.680;2023-02-24T10:25:33;16.80;;;6.85;;
55170;SDS011;41060;47.510;8.680;2023-02-24T10:28:15;11.77;;;6.65;;
55170;SDS011;41060;47.510;8.680;2023-02-24T10:31:02;15.32;;;7.43;;
55170;SDS011;41060;47.510;8.680;2023-02-24T10:33:37;15.45;;;7.13;;
55170;SDS011;41060;47.510;8.680;2023-02-24T10:36:10;13.23;;;6.00;;
55170;SDS011;41060;47.510;8.680;2023-02-24T10:38:42;13.40;;;6.47;;
55170;SDS011;41060;47.510;8.680;2023-02-24T10:41:11;14.90;;;6.88;;
55170;SDS011;41060;47.510;8.680;2023-02-24T10:43:39;11.55;;;5.50;;
55170;SDS011;41060;47.510;8.680;2023-02-24T10:46:18;9.90;;;5.57;;
55170;SDS011;41060;47.510;8.680;2023-02-24T10:48:53;9.98;;;6.05;;
55170;SDS011;41060;47.510;8.680;2023-02-24T10:51:27;12.35;;;6.07;;
55170;SDS011;41060;47.510;8.680;2023-02-24T10:54:03;9.73;;;6.22;;
55170;SDS011;41060;47.510;8.680;2023-02-24T10:57:09;14.10;;;6.18;;
55170;SDS011;41060;47.510;8.680;2023-02-24T10:59:47;11.60;;;5.82;;
55170;SDS011;41060;47.510;8.680;2023-02-24T11:02:36;11.70;;;6.10;;
55170;SDS011;41060;47.510;8.680;2023-02-24T11:05:22;11.15;;;5.88;;
55170;SDS011;41060;47.510;8.680;2023-02-24T11:08:04;13.90;;;5.80;;
55170;SDS011;41060;47.510;8.680;2023-02-24T11:10:37;11.15;;;5.97;;
55170;SDS011;41060;47.510;8.680;2023-02-24T11:13:17;7.93;;;4.28;;
55170;SDS011;41060;47.510;8.680;2023-02-24T11:16:03;10.13;;;5.72;;
55170;SDS011;41060;47.510;8.680;2023-02-24T11:18:52;12.65;;;6.45;;
55170;SDS011;41060;47.510;8.680;2023-02-24T11:21:21;12.88;;;6.22;;
55170;SDS011;41060;47.510;8.680;2023-02-24T11:23:50;11.35;;;5.50;;
55170;SDS011;41060;47.510;8.680;2023-02-24T11:26:21;11.18;;;5.78;;
55170;SDS011;41060;47.510;8.680;2023-02-24T11:29:02;8.82;;;5.53;;
55170;SDS011;41060;47.510;8.680;2023-02-24T11:31:46;10.27;;;5.05;;
55170;SDS011;41060;47.510;8.680;2023-02-24T11:34:22;9.05;;;4.25;;
55170;SDS011;41060;47.510;8.680;2023-02-24T11:37:00;8.68;;;3.83;;
55170;SDS011;41060;47.510;8.680;2023-02-24T11:39:49;9.70;;;4.22;;
55170;SDS011;41060;47.510;8.680;2023-02-24T11:42:22;6.43;;;3.47;;
55170;SDS011;41060;47.510;8.680;2023-02-24T11:44:53;7.40;;;3.17;;
55170;SDS011;41060;47.510;8.680;2023-02-24T11:47:26;11.60;;;4.10;;
55170;SDS011;41060;47.510;8.680;2023-02-24T11:50:03;13.77;;;3.92;;
55170;SDS011;41060;47.510;8.680;2023-02-24T11:52:44;14.00;;;4.45;;
55170;SDS011;41060;47.510;8.680;2023-02-24T11:55:20;10.82;;;4.82;;
55170;SDS011;41060;47.510;8.680;2023-02-24T11:57:56;8.48;;;4.05;;
55170;SDS011;41060;47.510;8.680;2023-02-24T12:00:25;12.68;;;4.50;;
55170;SDS011;41060;47.510;8.680;2023-02-24T12:02:58;12.68;;;3.63;;
55170;SDS011;41060;47.510;8.680;2023-02-24T12:05:29;8.23;;;3.40;;
55170;SDS011;41060;47.510;8.680;2023-02-24T12:08:04;9.43;;;4.15;;
55170;SDS011;41060;47.510;8.680;2023-02-24T12:10:40;11.55;;;4.00;;
55170;SDS011;41060;47.510;8.680;2023-02-24T12:13:15;9.80;;;4.35;;
55170;SDS011;41060;47.510;8.680;2023-02-24T12:15:50;13.10;;;4.70;;
55170;SDS011;41060;47.510;8.680;2023-02-24T12:18:25;13.40;;;4.72;;
55170;SDS011;41060;47.510;8.680;2023-02-24T12:20:58;12.57;;;4.22;;
55170;SDS011;41060;47.510;8.680;2023-02-24T12:23:33;7.40;;;3.70;;
55170;SDS011;41060;47.510;8.680;2023-02-24T12:26:08;8.93;;;4.13;;
55170;SDS011;41060;47.510;8.680;2023-02-24T12:28:46;12.27;;;4.18;;
55170;SDS011;41060;47.510;8.680;2023-02-24T12:31:24;8.35;;;4.05;;
55170;SDS011;41060;47.510;8.680;2023-02-24T12:34:01;11.73;;;3.70;;
55170;SDS011;41060;47.510;8.680;2023-02-24T12:39:34;8.32;;;4.50;;
55170;SDS011;41060;47.510;8.680;2023-02-24T12:42:13;7.85;;;3.20;;
55170;SDS011;41060;47.510;8.680;2023-02-24T12:44:50;14.00;;;4.80;;
55170;SDS011;41060;47.510;8.680;2023-02-24T12:47:24;9.35;;;3.40;;
55170;SDS011;41060;47.510;8.680;2023-02-24T12:52:33;14.10;;;4.10;;
55170;SDS011;41060;47.510;8.680;2023-02-24T12:55:12;10.95;;;2.70;;
55170;SDS011;41060;47.510;8.680;2023-02-24T12:57:47;14.43;;;3.25;;
55170;SDS011;41060;47.510;8.680;2023-02-24T13:00:23;9.70;;;2.58;;
55170;SDS011;41060;47.510;8.680;2023-02-24T13:03:04;11.88;;;3.15;;
55170;SDS011;41060;47.510;8.680;2023-02-24T13:05:41;5.93;;;2.65;;
55170;SDS011;41060;47.510;8.680;2023-02-24T13:08:14;8.27;;;2.83;;
55170;SDS011;41060;47.510;8.680;2023-02-24T13:10:56;12.00;;;2.75;;
55170;SDS011;41060;47.510;8.680;2023-02-24T13:13:30;9.85;;;3.42;;
55170;SDS011;41060;47.510;8.680;2023-02-24T13:16:05;9.13;;;3.45;;
55170;SDS011;41060;47.510;8.680;2023-02-24T13:18:33;4.93;;;2.30;;
55170;SDS011;41060;47.510;8.680;2023-02-24T13:21:05;6.60;;;2.40;;
55170;SDS011;41060;47.510;8.680;2023-02-24T13:23:35;8.98;;;3.00;;
55170;SDS011;41060;47.510;8.680;2023-02-24T13:26:09;4.85;;;2.25;;
55170;SDS011;41060;47.510;8.680;2023-02-24T13:28:36;6.97;;;2.97;;
55170;SDS011;41060;47.510;8.680;2023-02-24T13:31:03;5.32;;;2.45;;
55170;SDS011;41060;47.510;8.680;2023-02-24T13:33:33;7.55;;;2.63;;
55170;SDS011;41060;47.510;8.680;2023-02-24T13:36:09;5.65;;;2.55;;
55170;SDS011;41060;47.510;8.680;2023-02-24T13:38:39;4.18;;;2.22;;
55170;SDS011;41060;47.510;8.680;2023-02-24T13:41:19;4.07;;;1.90;;
55170;SDS011;41060;47.510;8.680;2023-02-24T13:44:00;11.82;;;2.65;;
55170;SDS011;41060;47.510;8.680;2023-02-24T13:46:29;9.40;;;2.30;;
55170;SDS011;41060;47.510;8.680;2023-02-24T13:49:19;5.63;;;2.60;;
55170;SDS011;41060;47.510;8.680;2023-02-24T13:51:56;18.65;;;2.55;;
55170;SDS011;41060;47.510;8.680;2023-02-24T13:57:36;8.00;;;2.33;;
55170;SDS011;41060;47.510;8.680;2023-02-24T14:00:29;9.80;;;2.67;;
55170;SDS011;41060;47.510;8.680;2023-02-24T14:03:10;10.05;;;2.95;;
55170;SDS011;41060;47.510;8.680;2023-02-24T14:05:43;14.70;;;3.05;;
55170;SDS011;41060;47.510;8.680;2023-02-24T14:08:16;7.07;;;2.15;;
55170;SDS011;41060;47.510;8.680;2023-02-24T14:10:47;9.33;;;2.40;;
55170;SDS011;41060;47.510;8.680;2023-02-24T14:13:22;6.57;;;1.75;;
55170;SDS011;41060;47.510;8.680;2023-02-24T14:15:53;5.95;;;2.45;;
55170;SDS011;41060;47.510;8.680;2023-02-24T14:18:23;7.22;;;2.63;;
55170;SDS011;41060;47.510;8.680;2023-02-24T14:20:52;6.28;;;1.92;;
55170;SDS011;41060;47.510;8.680;2023-02-24T14:23:21;9.77;;;2.60;;
55170;SDS011;41060;47.510;8.680;2023-02-24T14:25:53;10.52;;;2.22;;
55170;SDS011;41060;47.510;8.680;2023-02-24T14:28:25;12.02;;;2.60;;
55170;SDS011;41060;47.510;8.680;2023-02-24T14:30:55;14.75;;;2.80;;
55170;SDS011;41060;47.510;8.680;2023-02-24T14:33:25;4.15;;;1.58;;
55170;SDS011;41060;47.510;8.680;2023-02-24T14:35:55;7.10;;;2.63;;
55170;SDS011;41060;47.510;8.680;2023-02-24T14:41:19;5.47;;;1.77;;
55170;SDS011;41060;47.510;8.680;2023-02-24T14:43:49;9.35;;;1.88;;
55170;SDS011;41060;47.510;8.680;2023-02-24T14:46:16;11.70;;;2.17;;
55170;SDS011;41060;47.510;8.680;2023-02-24T14:48:43;7.30;;;2.05;;
55170;SDS011;41060;47.510;8.680;2023-02-24T14:51:11;3.70;;;1.08;;
55170;SDS011;41060;47.510;8.680;2023-02-24T14:53:47;8.25;;;1.83;;
55170;SDS011;41060;47.510;8.680;2023-02-24T14:56:17;11.45;;;2.20;;
55170;SDS011;41060;47.510;8.680;2023-02-24T14:58:47;10.52;;;2.78;;
55170;SDS011;41060;47.510;8.680;2023-02-24T15:01:19;5.13;;;1.65;;
55170;SDS011;41060;47.510;8.680;2023-02-24T15:03:49;8.52;;;2.03;;
55170;SDS011;41060;47.510;8.680;2023-02-24T15:06:18;4.57;;;2.05;;
55170;SDS011;41060;47.510;8.680;2023-02-24T15:08:49;11.60;;;2.90;;
55170;SDS011;41060;47.510;8.680;2023-02-24T15:11:22;7.83;;;1.70;;
55170;SDS011;41060;47.510;8.680;2023-02-24T15:13:55;13.35;;;2.25;;
55170;SDS011;41060;47.510;8.680;2023-02-24T15:16:25;7.03;;;2.22;;
55170;SDS011;41060;47.510;8.680;2023-02-24T15:18:55;6.60;;;1.98;;
55170;SDS011;41060;47.510;8.680;2023-02-24T15:21:27;7.00;;;2.15;;
55170;SDS011;41060;47.510;8.680;2023-02-24T15:23:59;7.68;;;1.95;;
55170;SDS011;41060;47.510;8.680;2023-02-24T15:26:27;14.85;;;1.95;;
55170;SDS011;41060;47.510;8.680;2023-02-24T15:29:12;12.45;;;2.00;;
55170;SDS011;41060;47.510;8.680;2023-02-24T15:31:45;6.13;;;1.98;;
55170;SDS011;41060;47.510;8.680;2023-02-24T15:34:14;7.27;;;2.17;;
55170;SDS011;41060;47.510;8.680;2023-02-24T15:36:44;8.38;;;2.25;;